createdAt,value
2023-04-19T00:00:09.430Z,6.80
2023-04-19T00:02:42.965Z,7.85
2023-04-19T00:05:15.450Z,7.15
2023-04-19T00:07:47.635Z,7.82
2023-04-19T00:10:19.864Z,7.40
2023-04-19T00:12:52.223Z,7.03
2023-04-19T00:15:26.995Z,7.97
2023-04-19T00:17:59.112Z,7.47
2023-04-19T00:20:31.297Z,7.78
2023-04-19T00:23:03.904Z,7.68
2023-04-19T00:25:36.140Z,7.35
2023-04-19T00:28:08.238Z,7.38
2023-04-19T00:30:42.978Z,7.55
2023-04-19T00:33:15.658Z,6.70
2023-04-19T00:35:47.749Z,8.38
2023-04-19T00:38:19.927Z,7.70
2023-04-19T00:40:52.011Z,7.57
2023-04-19T00:43:24.069Z,8.13
2023-04-19T00:45:59.181Z,7.40
2023-04-19T00:48:31.436Z,7.28
2023-04-19T00:51:04.190Z,8.23
2023-04-19T00:53:36.460Z,8.27
2023-04-19T00:56:09.704Z,7.80
2023-04-19T00:58:41.989Z,8.27
2023-04-19T01:01:17.054Z,7.55
2023-04-19T01:03:49.457Z,7.75
2023-04-19T01:06:22.143Z,8.25
2023-04-19T01:08:54.219Z,6.78
2023-04-19T01:11:26.795Z,7.28
2023-04-19T01:13:58.906Z,7.80
2023-04-19T01:16:33.707Z,7.43
2023-04-19T01:19:05.890Z,7.13
2023-04-19T01:21:39.582Z,7.45
2023-04-19T01:24:14.398Z,6.85
2023-04-19T01:26:46.822Z,7.40
2023-04-19T01:29:18.991Z,7.53
2023-04-19T01:31:54.062Z,7.03
2023-04-19T01:34:26.257Z,6.78
2023-04-19T01:36:58.422Z,7.53
2023-04-19T01:39:33.453Z,6.82
2023-04-19T01:42:05.806Z,6.68
2023-04-19T01:44:37.904Z,8.10
2023-04-19T01:47:10.125Z,6.50
2023-04-19T01:49:42.517Z,7.53
2023-04-19T01:52:14.589Z,6.47
2023-04-19T01:54:49.249Z,7.30
2023-04-19T01:57:21.611Z,6.65
2023-04-19T01:59:54.303Z,6.90
2023-04-19T02:02:26.579Z,7.40
2023-04-19T02:04:58.751Z,6.78
2023-04-19T02:07:30.902Z,7.40
2023-04-19T02:10:09.366Z,6.25
2023-04-19T02:12:43.003Z,7.28
2023-04-19T02:15:15.122Z,6.82
2023-04-19T02:17:47.332Z,6.13
2023-04-19T02:20:19.449Z,6.10
2023-04-19T02:22:51.511Z,5.75
2023-04-19T02:25:26.336Z,5.72
2023-04-19T02:27:58.449Z,6.53
2023-04-19T02:30:30.518Z,6.25
2023-04-19T02:33:02.635Z,6.53
2023-04-19T02:35:35.041Z,6.50
2023-04-19T02:38:07.130Z,6.53
2023-04-19T02:40:41.840Z,5.82
2023-04-19T02:43:13.946Z,6.05
2023-04-19T02:45:46.102Z,5.45
2023-04-19T02:48:18.324Z,5.82
2023-04-19T02:50:50.602Z,5.78
2023-04-19T02:53:22.796Z,5.80
2023-04-19T02:55:57.471Z,5.80
2023-04-19T02:58:29.542Z,4.90
2023-04-19T03:01:01.745Z,6.63
2023-04-19T03:03:33.965Z,5.60
2023-04-19T03:06:06.494Z,5.63
2023-04-19T03:08:38.557Z,5.88
2023-04-19T03:11:14.991Z,5.80
2023-04-19T03:13:47.055Z,6.50
2023-04-19T03:16:19.322Z,6.05
2023-04-19T03:18:51.390Z,5.45
2023-04-19T03:21:27.318Z,5.25
2023-04-19T03:23:59.427Z,5.47
2023-04-19T03:26:34.073Z,5.80
2023-04-19T03:29:06.223Z,6.30
2023-04-19T03:31:38.349Z,5.32
2023-04-19T03:34:10.431Z,4.97
2023-04-19T03:36:42.753Z,6.20
2023-04-19T03:39:14.872Z,5.72
2023-04-19T03:41:49.549Z,5.40
2023-04-19T03:44:21.649Z,5.38
2023-04-19T03:46:53.715Z,5.70
2023-04-19T03:49:26.048Z,5.40
2023-04-19T03:51:58.119Z,5.40
2023-04-19T03:54:30.332Z,5.47
2023-04-19T03:57:06.008Z,5.20
2023-04-19T03:59:38.110Z,5.20
2023-04-19T04:02:10.500Z,5.53
2023-04-19T04:04:42.966Z,5.65
2023-04-19T04:07:15.400Z,5.80
2023-04-19T04:09:48.470Z,5.80
2023-04-19T04:12:23.173Z,6.13
2023-04-19T04:14:55.314Z,5.47
2023-04-19T04:17:27.482Z,5.13
2023-04-19T04:19:59.904Z,5.57
2023-04-19T04:22:32.976Z,5.47
2023-04-19T04:25:06.321Z,5.63
2023-04-19T04:27:41.565Z,5.10
2023-04-19T04:30:14.057Z,5.43
2023-04-19T04:32:47.165Z,5.25
2023-04-19T04:35:19.426Z,5.22
2023-04-19T04:37:51.481Z,5.68
2023-04-19T04:40:23.694Z,5.65
2023-04-19T04:43:01.005Z,5.45
2023-04-19T04:45:36.041Z,6.00
2023-04-19T04:48:09.294Z,5.60
2023-04-19T04:50:44.401Z,6.47
2023-04-19T04:53:16.585Z,5.65
2023-04-19T04:55:48.707Z,6.13
2023-04-19T04:58:23.433Z,5.45
2023-04-19T05:00:55.599Z,5.18
2023-04-19T05:03:27.813Z,6.60
2023-04-19T05:06:00.118Z,6.50
2023-04-19T05:08:32.451Z,6.00
2023-04-19T05:11:04.579Z,6.03
2023-04-19T05:13:39.254Z,5.85
2023-04-19T05:16:11.508Z,6.47
2023-04-19T05:18:43.667Z,6.40
2023-04-19T05:21:15.860Z,5.75
2023-04-19T05:23:48.118Z,6.82
2023-04-19T05:26:20.416Z,7.43
2023-04-19T05:28:55.122Z,8.10
2023-04-19T05:31:27.323Z,6.30
2023-04-19T05:33:59.451Z,6.32
2023-04-19T05:36:32.347Z,5.72
2023-04-19T05:39:04.483Z,5.75
2023-04-19T05:41:36.787Z,5.68
2023-04-19T05:44:11.456Z,5.93
2023-04-19T05:46:43.563Z,5.53
2023-04-19T05:49:15.723Z,6.18
2023-04-19T05:51:47.835Z,6.82
2023-04-19T05:54:20.000Z,5.57
2023-04-19T05:56:52.071Z,5.85
2023-04-19T05:59:26.715Z,5.63
2023-04-19T06:01:59.372Z,5.65
2023-04-19T06:04:31.616Z,5.40
2023-04-19T06:07:06.194Z,5.47
2023-04-19T06:09:40.496Z,7.15
2023-04-19T06:12:12.626Z,5.93
2023-04-19T06:14:47.274Z,6.00
2023-04-19T06:17:24.608Z,5.63
2023-04-19T06:19:56.848Z,5.95
2023-04-19T06:22:28.920Z,6.07
2023-04-19T06:25:02.280Z,6.18
2023-04-19T06:27:34.432Z,5.93
2023-04-19T06:30:10.006Z,6.25
2023-04-19T06:32:42.199Z,6.35
2023-04-19T06:35:15.202Z,6.45
2023-04-19T06:37:47.257Z,6.30
2023-04-19T06:40:19.681Z,6.97
2023-04-19T06:42:51.720Z,6.38
2023-04-19T06:45:26.911Z,7.55
2023-04-19T06:47:59.024Z,7.30
2023-04-19T06:50:31.221Z,7.82
2023-04-19T06:53:04.850Z,6.55
2023-04-19T06:55:37.262Z,6.57
2023-04-19T06:58:10.973Z,6.68
2023-04-19T07:00:45.700Z,7.22
2023-04-19T07:03:17.843Z,7.15
2023-04-19T07:05:50.100Z,6.82
2023-04-19T07:08:23.045Z,7.20
2023-04-19T07:10:56.795Z,7.07
2023-04-19T07:13:31.377Z,6.82
2023-04-19T07:16:08.192Z,6.70
2023-04-19T07:18:40.431Z,8.80
2023-04-19T07:21:13.534Z,7.55
2023-04-19T07:23:45.606Z,7.55
2023-04-19T07:26:17.678Z,7.00
2023-04-19T07:28:50.476Z,7.80
2023-04-19T07:31:25.882Z,7.25
2023-04-19T07:33:58.038Z,7.20
2023-04-19T07:36:30.808Z,6.55
2023-04-19T07:39:02.903Z,6.97
2023-04-19T07:41:36.143Z,7.28
2023-04-19T07:44:08.594Z,6.28
2023-04-19T07:46:44.983Z,6.63
2023-04-19T07:49:17.164Z,7.32
2023-04-19T07:51:49.602Z,7.78
2023-04-19T07:54:21.733Z,6.53
2023-04-19T07:56:53.820Z,7.18
2023-04-19T07:59:25.913Z,6.95
2023-04-19T08:02:01.134Z,7.65
2023-04-19T08:04:33.475Z,7.07
2023-04-19T08:07:05.909Z,7.43
2023-04-19T08:09:38.131Z,8.60
2023-04-19T08:12:14.857Z,7.15
2023-04-19T08:15:03.905Z,6.88
2023-04-19T08:17:45.875Z,7.05
2023-04-19T08:20:18.075Z,6.45
2023-04-19T08:22:50.163Z,6.28
2023-04-19T08:25:26.904Z,7.35
2023-04-19T08:27:59.453Z,6.40
2023-04-19T08:30:31.653Z,6.75
2023-04-19T08:33:06.728Z,7.07
2023-04-19T08:35:41.164Z,7.68
2023-04-19T08:38:13.221Z,7.93
2023-04-19T08:40:47.746Z,7.00
2023-04-19T08:43:20.372Z,6.90
2023-04-19T08:45:54.154Z,6.97
2023-04-19T08:48:30.367Z,6.18
2023-04-19T08:51:05.850Z,6.30
2023-04-19T08:53:38.703Z,6.68
2023-04-19T08:56:21.218Z,6.30
2023-04-19T08:59:15.746Z,7.10
2023-04-19T09:01:50.545Z,6.05
2023-04-19T09:04:35.828Z,6.28
2023-04-19T09:07:09.675Z,6.47
2023-04-19T09:09:59.722Z,5.80
2023-04-19T09:12:35.258Z,5.78
2023-04-19T09:15:09.279Z,6.50
2023-04-19T09:17:41.511Z,5.78
2023-04-19T09:20:16.229Z,6.50
2023-04-19T09:23:04.737Z,5.53
2023-04-19T09:25:55.319Z,6.57
2023-04-19T09:28:29.767Z,6.30
2023-04-19T09:31:35.391Z,5.75
2023-04-19T09:34:16.186Z,6.07
2023-04-19T09:37:00.650Z,5.93
2023-04-19T09:39:41.166Z,6.82
2023-04-19T09:42:13.317Z,6.03
2023-04-19T09:45:27.710Z,6.18
2023-04-19T09:48:02.278Z,6.00
2023-04-19T09:50:50.480Z,5.35
2023-04-19T09:53:30.103Z,5.40
2023-04-19T09:56:03.926Z,5.40
2023-04-19T09:58:48.929Z,6.57
2023-04-19T10:01:24.814Z,6.07
2023-04-19T10:04:06.254Z,5.95
2023-04-19T10:09:27.594Z,6.72
2023-04-19T10:12:07.796Z,5.93
2023-04-19T10:14:55.881Z,5.75
2023-04-19T10:17:28.413Z,5.53
2023-04-19T10:20:08.572Z,6.28
2023-04-19T10:22:41.734Z,6.03
2023-04-19T10:25:17.128Z,7.40
2023-04-19T10:27:51.488Z,6.45
2023-04-19T10:30:25.046Z,6.25
2023-04-19T10:32:58.582Z,6.32
2023-04-19T10:35:37.688Z,6.68
2023-04-19T10:38:12.361Z,6.85
2023-04-19T10:41:04.001Z,6.18
2023-04-19T10:43:39.023Z,6.20
2023-04-19T10:46:16.281Z,7.10
2023-04-19T10:48:54.011Z,6.72
2023-04-19T10:51:28.191Z,7.07
2023-04-19T10:54:01.850Z,7.35
2023-04-19T10:57:11.334Z,7.15
2023-04-19T11:00:19.530Z,7.25
2023-04-19T11:02:51.736Z,6.45
2023-04-19T11:05:23.958Z,5.88
2023-04-19T11:07:57.877Z,6.38
2023-04-19T11:10:31.503Z,6.50
2023-04-19T11:13:04.106Z,7.72
2023-04-19T11:15:43.422Z,7.03
2023-04-19T11:18:18.918Z,6.78
2023-04-19T11:20:54.832Z,7.50
2023-04-19T11:23:27.642Z,7.30
2023-04-19T11:25:59.702Z,7.72
2023-04-19T11:28:33.539Z,6.45
2023-04-19T11:31:08.607Z,6.95
2023-04-19T11:33:40.801Z,6.50
2023-04-19T11:36:13.596Z,6.15
2023-04-19T11:38:48.002Z,5.13
2023-04-19T11:41:20.149Z,5.82
2023-04-19T11:43:52.518Z,5.78
2023-04-19T11:46:27.290Z,5.72
2023-04-19T11:48:59.593Z,5.55
2023-04-19T11:51:31.725Z,5.38
2023-04-19T11:54:13.892Z,5.13
2023-04-19T11:56:59.962Z,5.45
2023-04-19T11:59:33.453Z,5.28
2023-04-19T12:02:12.914Z,5.53
2023-04-19T12:04:45.270Z,5.90
2023-04-19T12:07:17.431Z,5.57
2023-04-19T12:09:49.732Z,5.70
2023-04-19T12:12:36.817Z,6.28
2023-04-19T12:15:09.769Z,5.60
2023-04-19T12:18:02.498Z,5.25
2023-04-19T12:20:36.419Z,5.75
2023-04-19T12:23:11.312Z,5.20
2023-04-19T12:25:44.924Z,5.55
2023-04-19T12:28:17.360Z,6.10
2023-04-19T12:30:49.537Z,9.25
2023-04-19T12:33:24.182Z,13.07
2023-04-19T12:35:56.342Z,7.03
2023-04-19T12:38:28.409Z,4.53
2023-04-19T12:41:01.193Z,5.18
2023-04-19T12:43:33.580Z,4.82
2023-04-19T12:46:05.905Z,4.93
2023-04-19T12:48:40.700Z,4.43
2023-04-19T12:51:12.751Z,4.90
2023-04-19T12:53:48.238Z,5.07
2023-04-19T12:56:20.507Z,5.15
2023-04-19T12:58:53.189Z,5.18
2023-04-19T13:01:25.265Z,4.78
2023-04-19T13:04:00.164Z,4.53
2023-04-19T13:06:32.536Z,4.53
2023-04-19T13:09:14.019Z,5.15
2023-04-19T13:11:46.831Z,5.07
2023-04-19T13:14:19.107Z,4.82
2023-04-19T13:16:51.373Z,4.90
2023-04-19T13:19:26.972Z,4.38
2023-04-19T13:21:59.215Z,4.68
2023-04-19T13:24:31.534Z,4.85
2023-04-19T13:27:04.482Z,4.50
2023-04-19T13:29:37.607Z,4.28
2023-04-19T13:32:12.611Z,4.55
2023-04-19T13:34:47.338Z,4.80
2023-04-19T13:37:19.388Z,4.97
2023-04-19T13:39:51.831Z,4.07
2023-04-19T13:42:24.053Z,4.28
2023-04-19T13:44:56.352Z,4.88
2023-04-19T13:47:28.434Z,3.83
2023-04-19T13:50:03.308Z,3.65
2023-04-19T13:52:35.395Z,3.55
2023-04-19T13:57:39.689Z,4.90
2023-04-19T14:00:12.780Z,5.18
2023-04-19T14:02:45.951Z,4.93
2023-04-19T14:05:20.862Z,4.85
2023-04-19T14:07:52.965Z,4.60
2023-04-19T14:10:25.226Z,4.68
2023-04-19T14:12:57.502Z,3.25
2023-04-19T14:15:29.769Z,3.53
2023-04-19T14:18:02.690Z,3.10
2023-04-19T14:20:37.406Z,3.08
2023-04-19T14:23:09.479Z,2.40
2023-04-19T14:28:13.629Z,1.70
2023-04-19T14:30:45.783Z,2.10
2023-04-19T14:33:17.887Z,1.67
2023-04-19T14:35:52.539Z,1.73
2023-04-19T14:38:24.640Z,1.80
2023-04-19T14:40:56.872Z,2.78
2023-04-19T14:43:29.276Z,2.17
2023-04-19T14:46:01.358Z,2.97
2023-04-19T14:48:33.562Z,2.58
2023-04-19T14:51:08.323Z,2.45
2023-04-19T14:53:40.369Z,2.20
2023-04-19T14:56:12.438Z,2.45
2023-04-19T14:58:44.525Z,2.42
2023-04-19T15:01:16.974Z,1.75
2023-04-19T15:03:49.496Z,1.70
2023-04-19T15:06:24.397Z,1.90
2023-04-19T15:08:56.920Z,1.75
2023-04-19T15:11:29.032Z,2.00
2023-04-19T15:14:01.112Z,1.15
2023-04-19T15:16:33.373Z,1.15
2023-04-19T15:19:07.569Z,1.13
2023-04-19T15:21:42.507Z,1.10
2023-04-19T15:24:14.605Z,1.45
2023-04-19T15:26:46.716Z,1.30
2023-04-19T15:29:19.088Z,1.30
2023-04-19T15:31:51.338Z,0.77
2023-04-19T15:34:25.419Z,0.52
2023-04-19T15:37:01.802Z,0.55
2023-04-19T15:39:33.936Z,0.50
2023-04-19T15:42:06.119Z,5.40
2023-04-19T15:44:38.175Z,2.40
2023-04-19T15:47:10.441Z,0.90
2023-04-19T15:49:42.557Z,1.52
2023-04-19T15:52:18.259Z,0.60
2023-04-19T15:54:51.066Z,1.80
2023-04-19T15:57:23.112Z,0.90
2023-04-19T15:59:55.430Z,0.80
2023-04-19T16:02:27.793Z,0.50
2023-04-19T16:05:00.194Z,0.75
2023-04-19T16:07:35.291Z,0.70
2023-04-19T16:10:08.349Z,0.47
2023-04-19T16:12:40.603Z,0.60
2023-04-19T16:15:13.547Z,0.60
2023-04-19T16:17:45.953Z,0.45
2023-04-19T16:20:18.216Z,0.80
2023-04-19T16:22:52.880Z,0.52
2023-04-19T16:25:25.035Z,0.80
2023-04-19T16:27:57.340Z,0.82
2023-04-19T16:30:29.808Z,2.28
2023-04-19T16:33:01.949Z,1.42
2023-04-19T16:35:34.227Z,1.50
2023-04-19T16:38:08.898Z,1.60
2023-04-19T16:40:41.070Z,1.48
2023-04-19T16:43:13.132Z,1.02
2023-04-19T16:45:45.232Z,1.08
2023-04-19T16:48:17.433Z,0.63
2023-04-19T16:50:49.638Z,0.60
2023-04-19T16:53:24.291Z,0.60
2023-04-19T16:55:56.754Z,0.63
2023-04-19T16:58:28.887Z,1.10
2023-04-19T17:01:02.274Z,1.10
2023-04-19T17:03:35.118Z,1.05
2023-04-19T17:06:07.951Z,0.73
2023-04-19T17:08:42.619Z,0.80
2023-04-19T17:11:14.696Z,1.23
2023-04-19T17:13:46.806Z,0.40
2023-04-19T17:16:18.913Z,0.77
2023-04-19T17:18:51.941Z,0.73
2023-04-19T17:21:24.028Z,0.90
2023-04-19T17:23:58.703Z,0.85
2023-04-19T17:26:30.850Z,0.47
2023-04-19T17:29:03.113Z,0.57
2023-04-19T17:31:35.379Z,0.60
2023-04-19T17:34:07.548Z,0.63
2023-04-19T17:36:39.765Z,0.70
2023-04-19T17:39:14.619Z,1.48
2023-04-19T17:41:46.818Z,1.10
2023-04-19T17:44:18.876Z,0.73
2023-04-19T17:46:50.961Z,0.95
2023-04-19T17:49:23.206Z,0.60
2023-04-19T17:51:56.210Z,1.20
2023-04-19T17:54:31.005Z,1.52
2023-04-19T17:57:03.312Z,0.82
2023-04-19T17:59:35.744Z,0.57
2023-04-19T18:02:10.113Z,0.73
2023-04-19T18:04:44.718Z,1.02
2023-04-19T18:07:17.281Z,1.15
2023-04-19T18:09:52.027Z,0.90
2023-04-19T18:12:24.157Z,1.00
2023-04-19T18:14:56.222Z,0.88
2023-04-19T18:17:28.362Z,1.05
2023-04-19T18:20:02.185Z,0.75
2023-04-19T18:22:34.346Z,1.17
2023-04-19T18:25:10.091Z,1.00
2023-04-19T18:27:42.137Z,1.25
2023-04-19T18:30:14.545Z,1.13
2023-04-19T18:32:47.108Z,1.20
2023-04-19T18:35:19.331Z,1.05
2023-04-19T18:37:51.402Z,1.30
2023-04-19T18:40:26.059Z,1.40
2023-04-19T18:42:58.149Z,0.93
2023-04-19T18:45:33.179Z,1.33
2023-04-19T18:48:05.945Z,1.65
2023-04-19T18:50:38.578Z,1.27
2023-04-19T18:53:10.749Z,1.20
2023-04-19T18:55:47.222Z,1.25
2023-04-19T18:58:19.547Z,0.95
2023-04-19T19:00:52.309Z,1.40
2023-04-19T19:06:00.211Z,1.20
2023-04-19T19:08:32.588Z,1.00
2023-04-19T19:11:33.073Z,1.00
2023-04-19T19:13:59.413Z,1.55
2023-04-19T19:19:09.840Z,1.48
2023-04-19T19:21:41.964Z,1.00
2023-04-19T19:24:14.043Z,1.23
2023-04-19T19:26:48.940Z,1.52
2023-04-19T19:29:22.663Z,1.48
2023-04-19T19:31:54.973Z,1.05
2023-04-19T19:34:30.183Z,1.27
2023-04-19T19:37:02.765Z,1.30
2023-04-19T19:39:34.979Z,1.33
2023-04-19T19:42:09.602Z,1.42
2023-04-19T19:44:41.677Z,1.23
2023-04-19T19:47:16.400Z,1.02
2023-04-19T19:50:11.577Z,1.38
2023-04-19T19:52:41.337Z,1.27
2023-04-19T19:55:14.018Z,1.65
2023-04-19T19:58:25.818Z,1.73
2023-04-19T20:00:47.371Z,1.50
2023-04-19T20:03:35.599Z,1.23
2023-04-19T20:06:57.148Z,1.80
2023-04-19T20:09:04.627Z,1.50
2023-04-19T20:11:36.921Z,2.13
2023-04-19T20:14:11.634Z,1.60
2023-04-19T20:16:43.778Z,1.42
2023-04-19T20:19:16.139Z,1.55
2023-04-19T20:21:48.333Z,1.48
2023-04-19T20:24:21.687Z,1.85
2023-04-19T20:26:53.745Z,1.85
2023-04-19T20:29:28.472Z,1.58
2023-04-19T20:32:00.652Z,2.15
2023-04-19T20:34:32.776Z,2.22
2023-04-19T20:37:06.982Z,1.80
2023-04-19T20:39:39.175Z,1.35
2023-04-19T20:42:11.325Z,3.80
2023-04-19T20:44:45.998Z,2.17
2023-04-19T20:47:18.428Z,2.40
2023-04-19T20:49:50.826Z,1.75
2023-04-19T20:52:22.881Z,1.48
2023-04-19T20:54:56.985Z,1.20
2023-04-19T20:57:29.099Z,1.02
2023-04-19T21:00:05.752Z,1.33
2023-04-19T21:02:38.010Z,1.40
2023-04-19T21:05:10.645Z,1.15
2023-04-19T21:07:42.700Z,1.58
2023-04-19T21:10:16.570Z,1.48
2023-04-19T21:12:48.728Z,1.23
2023-04-19T21:15:23.488Z,1.42
2023-04-19T21:17:56.727Z,1.75
2023-04-19T21:20:28.948Z,1.58
2023-04-19T21:23:02.151Z,1.73
2023-04-19T21:25:34.422Z,1.70
2023-04-19T21:28:06.489Z,2.03
2023-04-19T21:30:43.464Z,2.03
2023-04-19T21:33:18.236Z,1.90
2023-04-19T21:35:50.399Z,1.88
2023-04-19T21:38:22.708Z,2.40
2023-04-19T21:40:54.770Z,1.80
2023-04-19T21:43:26.902Z,2.03
2023-04-19T21:46:04.199Z,2.03
2023-04-19T21:48:36.298Z,1.83
2023-04-19T21:51:08.400Z,1.60
2023-04-19T21:53:40.745Z,1.73
2023-04-19T21:56:12.814Z,1.95
2023-04-19T21:58:44.915Z,1.77
2023-04-19T22:01:19.974Z,1.85
2023-04-19T22:03:52.288Z,1.75
2023-04-19T22:06:24.741Z,2.17
2023-04-19T22:08:57.135Z,1.80
2023-04-19T22:11:30.289Z,1.42
2023-04-19T22:14:03.099Z,1.70
2023-04-19T22:16:37.814Z,1.90
2023-04-19T22:19:10.902Z,1.90
2023-04-19T22:21:42.959Z,1.73
2023-04-19T22:24:15.162Z,1.38
2023-04-19T22:26:47.226Z,1.77
2023-04-19T22:29:19.940Z,1.95
2023-04-19T22:31:54.754Z,1.85
2023-04-19T22:34:26.905Z,1.65
2023-04-19T22:36:59.022Z,1.70
2023-04-19T22:39:31.090Z,1.88
2023-04-19T22:42:03.183Z,1.88
2023-04-19T22:44:35.365Z,1.67
2023-04-19T22:47:11.939Z,2.22
2023-04-19T22:49:45.447Z,1.92
2023-04-19T22:52:17.571Z,1.77
2023-04-19T22:54:49.621Z,1.95
2023-04-19T22:57:21.721Z,1.63
2023-04-19T22:59:53.819Z,2.35
2023-04-19T23:02:28.617Z,1.92
2023-04-19T23:05:00.913Z,1.80
2023-04-19T23:07:33.604Z,2.22
2023-04-19T23:10:06.736Z,1.88
2023-04-19T23:12:39.140Z,1.70
2023-04-19T23:15:11.780Z,2.13
2023-04-19T23:17:46.630Z,1.63
2023-04-19T23:20:19.023Z,1.77
2023-04-19T23:22:51.793Z,2.50
2023-04-19T23:25:25.252Z,1.73
2023-04-19T23:27:57.401Z,2.45
2023-04-19T23:30:32.063Z,2.13
2023-04-19T23:33:06.985Z,1.95
2023-04-19T23:35:39.221Z,1.90
2023-04-19T23:38:11.298Z,2.63
2023-04-19T23:40:43.404Z,1.67
2023-04-19T23:43:15.492Z,1.98
2023-04-19T23:45:47.581Z,2.17
2023-04-19T23:48:22.271Z,2.10
2023-04-19T23:50:54.305Z,2.38
2023-04-19T23:53:26.423Z,2.22
2023-04-19T23:55:58.501Z,2.40
2023-04-19T23:58:30.587Z,1.90
